Time;durP1;ratioP1;P1;durP2;ratioP2;P2;SDS_P1;SDS_P2;PMS_P1;PMS_P2;Temp;Humidity;BMP_temperature;BMP_pressure;BME280_temperature;BME280_humidity;BME280_pressure;Samples;Min_cycle;Max_cycle;Signal;HPM_P1;HPM_P2
2021/12/31 00:02:16;;;;;;;27.43;11.27;;;;;;;-5.40;100.00;146334.52;1648287;85;21118;-63
2021/12/31 00:04:42;;;;;;;27.37;11.73;;;;;;;-5.34;100.00;146349.87;1665320;84;21526;-62
2021/12/31 00:07:09;;;;;;;54.67;21.03;;;;;;;-5.27;100.00;146366.53;1659995;84;20990;-63
2021/12/31 00:09:37;;;;;;;54.93;21.13;;;;;;;-5.21;100.00;146381.91;1671875;84;21100;-62
2021/12/31 00:12:07;;;;;;;78.23;28.03;;;;;;;-5.22;100.00;146380.59;1669293;84;21105;-63
2021/12/31 00:14:37;;;;;;;45.47;18.10;;;;;;;-5.25;100.00;146372.91;1677539;84;21074;-56
2021/12/31 00:17:05;;;;;;;31.33;12.50;;;;;;;-5.28;100.00;146365.23;1670439;84;21217;-56
2021/12/31 00:19:36;;;;;;;33.40;13.13;;;;;;;-5.31;100.00;146357.56;1668854;84;21036;-56
2021/12/31 00:22:13;;;;;;;30.90;11.77;;;;;;;-5.32;100.00;146356.25;1673607;84;21058;-56
2021/12/31 00:24:29;;;;;;;66.40;25.87;;;;;;;-5.30;100.00;146360.13;1663578;84;21099;-56
2021/12/31 00:26:55;;;;;;;31.97;13.77;;;;;;;-5.32;100.00;146355.00;1668653;84;21007;-60
2021/12/31 00:29:22;;;;;;;35.73;14.73;;;;;;;-5.27;100.00;146366.53;1667588;84;21129;-56
2021/12/31 00:31:49;;;;;;;35.20;14.37;;;;;;;-5.24;100.00;146375.47;1670376;84;21530;-56
2021/12/31 00:34:15;;;;;;;32.13;13.30;;;;;;;-5.16;100.00;146394.70;1670933;84;21059;-57
2021/12/31 00:36:47;;;;;;;33.10;13.97;;;;;;;-5.08;100.00;146415.23;1669920;84;21092;-63
2021/12/31 00:39:14;;;;;;;31.27;13.70;;;;;;;-4.98;100.00;146438.28;1672759;84;21078;-64
2021/12/31 00:41:42;;;;;;;35.10;14.87;;;;;;;-4.95;100.00;146447.27;1673649;84;21109;-58
2021/12/31 00:44:11;;;;;;;32.60;14.03;;;;;;;-4.90;100.00;146458.77;1670740;84;21097;-56
2021/12/31 00:46:38;;;;;;;33.87;13.30;;;;;;;-4.83;100.00;146475.44;1665650;83;21145;-57
2021/12/31 00:49:06;;;;;;;35.30;13.37;;;;;;;-4.76;100.00;146493.36;1671177;84;21159;-57
2021/12/31 00:51:34;;;;;;;29.33;12.77;;;;;;;-4.67;100.00;146516.47;1674341;84;20990;-63
2021/12/31 00:54:00;;;;;;;32.53;14.23;;;;;;;-4.60;100.00;146534.39;1665835;85;21113;-64
2021/12/31 00:56:27;;;;;;;31.33;13.67;;;;;;;-4.53;100.00;146551.06;1670622;83;21121;-56
2021/12/31 00:58:54;;;;;;;31.83;13.90;;;;;;;-4.52;100.00;146552.38;1667632;84;21079;-57
2021/12/31 01:01:22;;;;;;;34.10;14.43;;;;;;;-4.48;100.00;146563.87;1668863;84;21124;-58
2021/12/31 01:03:49;;;;;;;34.97;13.67;;;;;;;-4.42;100.00;146576.69;1666950;84;21714;-57
2021/12/31 01:06:15;;;;;;;30.40;13.30;;;;;;;-4.39;100.00;146585.69;1668703;84;21908;-57
2021/12/31 01:08:42;;;;;;;33.90;13.97;;;;;;;-4.35;100.00;146594.67;1674050;84;21097;-58
2021/12/31 01:11:10;;;;;;;33.30;14.93;;;;;;;-4.33;100.00;146599.80;1672258;84;21097;-59
2021/12/31 01:13:52;;;;;;;34.70;13.77;;;;;;;-4.29;100.00;146608.78;1666161;84;21107;-57
2021/12/31 01:16:08;;;;;;;35.97;14.27;;;;;;;-4.27;100.00;146613.91;1669711;84;20880;-63
2021/12/31 01:21:21;;;;;;;33.10;14.28;;;;;;;-4.22;100.00;146626.72;1667086;84;21063;-63
2021/12/31 01:23:51;;;;;;;37.70;16.63;;;;;;;-4.15;100.00;146643.41;1669794;84;22388;-63
2021/12/31 01:26:18;;;;;;;41.03;16.40;;;;;;;-4.13;100.00;146649.78;1663105;84;21067;-63
2021/12/31 01:28:45;;;;;;;41.63;16.73;;;;;;;-4.10;100.00;146656.22;1669915;85;22008;-63
2021/12/31 01:31:12;;;;;;;42.47;16.30;;;;;;;-4.08;100.00;146662.64;1668704;84;21136;-57
2021/12/31 01:33:39;;;;;;;41.57;16.87;;;;;;;-4.04;100.00;146672.91;1669710;84;21579;-57
2021/12/31 01:36:08;;;;;;;39.63;16.60;;;;;;;-3.99;100.00;146683.16;1665605;85;21170;-57
2021/12/31 01:38:35;;;;;;;44.33;16.67;;;;;;;-3.95;100.00;146693.41;1665602;84;21627;-63
2021/12/31 01:41:02;;;;;;;42.47;17.27;;;;;;;-3.92;100.00;146701.09;1667102;84;21681;-57
2021/12/31 01:43:29;;;;;;;35.97;15.00;;;;;;;-3.87;100.00;146713.91;1669627;84;21115;-64
2021/12/31 01:46:00;;;;;;;39.00;16.20;;;;;;;-3.82;100.00;146726.78;1669379;84;21010;-63
2021/12/31 01:48:47;;;;;;;38.17;15.20;;;;;;;-3.80;100.00;146731.91;1671090;84;21157;-57
2021/12/31 01:51:03;;;;;;;37.88;16.02;;;;;;;-3.77;100.00;146739.59;1665235;84;21459;-63
2021/12/31 01:53:31;;;;;;;38.60;15.10;;;;;;;-3.76;100.00;146742.16;1663295;84;21064;-57
2021/12/31 01:56:00;;;;;;;39.20;15.13;;;;;;;-3.74;100.00;146747.28;1671595;84;21164;-56
2021/12/31 01:58:28;;;;;;;43.90;16.63;;;;;;;-3.70;100.00;146754.97;1669295;84;21103;-63
2021/12/31 02:00:58;;;;;;;38.67;15.27;;;;;;;-3.68;100.00;146760.09;1662485;85;21347;-63
2021/12/31 02:03:27;;;;;;;39.00;16.43;;;;;;;-3.65;100.00;146767.78;1668444;84;21442;-63
2021/12/31 02:05:54;;;;;;;35.93;15.27;;;;;;;-3.63;100.00;146772.97;1676179;84;21031;-63
2021/12/31 02:08:21;;;;;;;38.13;16.23;;;;;;;-3.61;100.00;146778.09;1675114;84;21159;-63
2021/12/31 02:10:51;;;;;;;39.77;16.17;;;;;;;-3.60;100.00;146781.91;1677994;84;21173;-57
2021/12/31 02:13:19;;;;;;;41.03;16.17;;;;;;;-3.58;100.00;146785.78;1677169;84;21002;-57
2021/12/31 02:15:47;;;;;;;36.40;15.27;;;;;;;-3.57;100.00;146787.03;1673652;84;21005;-57
2021/12/31 02:18:14;;;;;;;37.20;15.40;;;;;;;-3.55;100.00;146793.47;1649153;85;21127;-63
2021/12/31 02:20:48;;;;;;;37.43;16.30;;;;;;;-3.53;100.00;146798.59;1647217;85;21477;-64
2021/12/31 02:23:23;;;;;;;37.00;15.57;;;;;;;-3.53;100.00;146798.59;1642967;85;21067;-63
2021/12/31 02:25:48;;;;;;;39.10;15.50;;;;;;;-3.51;100.00;146803.73;1671472;85;21058;-63
2021/12/31 02:28:15;;;;;;;38.77;16.17;;;;;;;-3.49;100.00;146807.59;1673223;84;21490;-63
2021/12/31 02:30:43;;;;;;;38.73;16.77;;;;;;;-3.46;100.00;146816.55;1677425;84;21677;-63
2021/12/31 02:33:10;;;;;;;44.10;17.37;;;;;;;-3.43;100.00;146821.69;1675364;84;21290;-63
2021/12/31 02:35:37;;;;;;;42.30;17.57;;;;;;;-3.43;100.00;146822.98;1671101;84;21109;-63
2021/12/31 02:38:05;;;;;;;42.47;17.07;;;;;;;-3.45;100.00;146817.86;1676160;84;21140;-64
2021/12/31 02:40:32;;;;;;;44.57;17.53;;;;;;;-3.46;100.00;146816.55;1676121;84;21096;-63
2021/12/31 02:42:59;;;;;;;43.00;17.13;;;;;;;-3.43;100.00;146821.69;1673330;84;22403;-63
2021/12/31 02:45:33;;;;;;;40.15;17.65;;;;;;;-3.43;100.00;146822.98;1675014;84;22354;-63
2021/12/31 02:47:55;;;;;;;42.23;17.57;;;;;;;-3.38;100.00;146835.81;1676755;84;20986;-62
2021/12/31 02:50:30;;;;;;;42.03;17.30;;;;;;;-3.34;100.00;146844.81;1669468;84;21368;-65
2021/12/31 02:52:50;;;;;;;42.43;18.20;;;;;;;-3.34;100.00;146844.81;1653955;85;21080;-63
2021/12/31 02:55:17;;;;;;;45.70;18.83;;;;;;;-3.33;100.00;146847.37;1648203;85;21133;-64
2021/12/31 02:57:44;;;;;;;41.83;17.70;;;;;;;-3.32;100.00;146849.94;1664045;84;21157;-64
2021/12/31 03:00:13;;;;;;;44.33;17.90;;;;;;;-3.32;100.00;146851.25;1666033;84;21061;-64
2021/12/31 03:02:41;;;;;;;45.58;18.67;;;;;;;-3.34;100.00;146844.81;1670506;84;21131;-64
2021/12/31 03:05:09;;;;;;;42.30;17.97;;;;;;;-3.32;100.00;146851.25;1671450;84;21036;-64
2021/12/31 03:07:39;;;;;;;44.40;19.20;;;;;;;-3.28;100.00;146858.94;1632065;86;21101;-64
2021/12/31 03:10:06;;;;;;;44.47;17.37;;;;;;;-3.29;100.00;146856.38;1630247;86;21153;-63
2021/12/31 03:12:33;;;;;;;45.23;18.13;;;;;;;-3.32;100.00;146849.94;1635415;85;21580;-64
2021/12/31 03:15:01;;;;;;;42.88;17.87;;;;;;;-3.31;100.00;146852.50;1663901;85;21016;-64
2021/12/31 03:17:28;;;;;;;42.35;17.25;;;;;;;-3.32;100.00;146851.25;1664336;85;21122;-64
2021/12/31 03:20:07;;;;;;;45.63;19.07;;;;;;;-3.37;100.00;146838.37;1662920;84;21032;-64
2021/12/31 03:22:25;;;;;;;44.57;19.30;;;;;;;-3.37;100.00;146837.11;1657004;85;21150;-64
2021/12/31 03:24:53;;;;;;;47.27;18.53;;;;;;;-3.35;100.00;146842.25;1661374;85;21047;-64
2021/12/31 03:27:19;;;;;;;46.43;19.27;;;;;;;-3.29;100.00;146856.38;1651086;84;21044;-64
2021/12/31 03:29:46;;;;;;;45.12;18.98;;;;;;;-3.24;100.00;146870.45;1660838;85;21593;-63
2021/12/31 03:32:13;;;;;;;48.00;18.30;;;;;;;-3.22;100.00;146875.58;1664836;85;21049;-64
2021/12/31 03:34:40;;;;;;;42.13;16.97;;;;;;;-3.20;100.00;146880.77;1660804;85;21126;-64
2021/12/31 03:37:07;;;;;;;42.17;17.90;;;;;;;-3.15;100.00;146892.28;1666702;84;21117;-63
2021/12/31 03:39:35;;;;;;;43.80;17.70;;;;;;;-3.10;100.00;146903.84;1663341;85;21072;-65
2021/12/31 03:42:01;;;;;;;44.87;17.27;;;;;;;-3.08;100.00;146908.97;1656510;85;20941;-64
2021/12/31 03:44:28;;;;;;;40.67;17.67;;;;;;;-3.10;100.00;146903.84;1657846;85;21095;-63
2021/12/31 03:46:57;;;;;;;46.40;18.57;;;;;;;-3.12;100.00;146898.72;1663977;84;21422;-64
2021/12/31 03:49:23;;;;;;;45.87;18.43;;;;;;;-3.10;100.00;146903.84;1663785;84;21078;-63
2021/12/31 03:51:50;;;;;;;43.70;18.15;;;;;;;-3.08;100.00;146910.28;1665487;85;21586;-64
2021/12/31 03:54:16;;;;;;;40.50;17.47;;;;;;;-3.05;100.00;146916.67;1663528;84;21085;-64
2021/12/31 03:56:44;;;;;;;44.03;17.67;;;;;;;-3.04;100.00;146919.23;1662611;84;21524;-64
2021/12/31 03:59:12;;;;;;;47.43;19.00;;;;;;;-3.04;100.00;146919.23;1666327;84;21516;-64
2021/12/31 04:01:40;;;;;;;41.93;17.40;;;;;;;-3.03;100.00;146923.11;1660907;85;21121;-64
2021/12/31 04:04:08;;;;;;;44.20;17.67;;;;;;;-3.01;100.00;146926.94;1670271;84;20880;-64
2021/12/31 04:06:35;;;;;;;41.40;17.40;;;;;;;-3.00;100.00;146929.50;1644820;85;21057;-64
2021/12/31 04:09:05;;;;;;;44.05;17.60;;;;;;;-3.01;100.00;146926.94;1650377;85;21105;-66
2021/12/31 04:11:32;;;;;;;41.85;17.50;;;;;;;-3.01;100.00;146926.94;1649899;85;21482;-64
2021/12/31 04:13:59;;;;;;;43.33;18.60;;;;;;;-2.99;100.00;146932.06;1651432;85;20970;-64
2021/12/31 04:16:25;;;;;;;46.07;17.87;;;;;;;-3.00;100.00;146929.50;1657591;85;21069;-64
2021/12/31 04:18:52;;;;;;;43.63;17.92;;;;;;;-3.01;100.00;146926.94;1651839;85;21436;-64
2021/12/31 04:21:21;;;;;;;43.65;17.85;;;;;;;-3.01;100.00;146926.94;1651591;85;21078;-64
2021/12/31 04:24:03;;;;;;;45.80;18.80;;;;;;;-2.98;100.00;146934.67;1653878;84;21592;-65
2021/12/31 04:26:16;;;;;;;47.13;19.27;;;;;;;-2.96;100.00;146939.81;1648814;85;21382;-64
2021/12/31 04:28:46;;;;;;;43.40;17.67;;;;;;;-2.98;100.00;146933.36;1653346;85;21811;-64
2021/12/31 04:31:12;;;;;;;46.77;18.30;;;;;;;-2.99;100.00;146930.80;1652717;85;21614;-63
2021/12/31 04:33:39;;;;;;;41.28;16.95;;;;;;;-3.03;100.00;146921.80;1657913;85;21139;-65
2021/12/31 04:36:06;;;;;;;40.47;17.17;;;;;;;-3.03;100.00;146921.80;1651098;85;21912;-63
2021/12/31 04:38:33;;;;;;;38.83;16.40;;;;;;;-3.04;100.00;146920.55;1646303;85;21159;-65
2021/12/31 04:41:00;;;;;;;42.48;17.23;;;;;;;-3.02;100.00;146924.36;1650812;85;20932;-64
2021/12/31 04:43:26;;;;;;;37.85;15.72;;;;;;;-3.00;100.00;146928.23;1648142;85;21100;-64
2021/12/31 04:45:53;;;;;;;41.53;16.97;;;;;;;-2.99;100.00;146932.06;1657916;83;21038;-63
2021/12/31 04:48:19;;;;;;;35.50;16.17;;;;;;;-2.99;100.00;146932.06;1652301;85;21137;-64
2021/12/31 04:50:46;;;;;;;37.67;16.35;;;;;;;-2.96;100.00;146939.81;1648884;85;21135;-63
2021/12/31 04:53:13;;;;;;;39.80;16.75;;;;;;;-2.92;100.00;146948.75;1653763;84;21018;-63
2021/12/31 04:55:40;;;;;;;38.70;17.12;;;;;;;-2.92;100.00;146950.06;1647344;85;21075;-63
2021/12/31 04:58:07;;;;;;;35.97;16.07;;;;;;;-2.96;100.00;146939.81;1655629;85;21114;-64
2021/12/31 05:00:34;;;;;;;40.83;16.73;;;;;;;-2.95;100.00;146942.37;1644704;85;21752;-64
2021/12/31 05:03:10;;;;;;;40.00;17.20;;;;;;;-2.95;100.00;146942.37;1650127;85;20968;-63
2021/12/31 05:05:37;;;;;;;39.70;16.23;;;;;;;-2.95;100.00;146942.37;1652657;84;21066;-63
2021/12/31 05:08:04;;;;;;;38.60;16.20;;;;;;;-2.95;100.00;146942.37;1665552;84;21460;-65
2021/12/31 05:10:32;;;;;;;37.23;16.07;;;;;;;-2.98;100.00;146934.67;1666802;85;21089;-64
2021/12/31 05:13:02;;;;;;;38.40;16.50;;;;;;;-2.98;100.00;146933.36;1655529;85;21453;-63
2021/12/31 05:15:34;;;;;;;42.23;17.13;;;;;;;-2.99;100.00;146930.80;1666690;85;21067;-63
2021/12/31 05:18:00;;;;;;;41.63;17.20;;;;;;;-2.97;100.00;146935.94;1664081;85;21039;-63
2021/12/31 05:20:27;;;;;;;41.10;16.80;;;;;;;-2.97;100.00;146937.23;1666813;85;21147;-63
2021/12/31 05:22:54;;;;;;;39.78;17.57;;;;;;;-2.98;100.00;146933.36;1665209;84;21059;-63
2021/12/31 05:25:22;;;;;;;47.35;18.17;;;;;;;-2.96;100.00;146939.81;1662019;85;21129;-63
2021/12/31 05:27:49;;;;;;;43.83;19.13;;;;;;;-2.95;100.00;146942.37;1671110;83;21074;-63
2021/12/31 05:30:16;;;;;;;43.80;18.30;;;;;;;-2.92;100.00;146950.06;1662858;84;21082;-63
2021/12/31 05:32:43;;;;;;;49.65;18.85;;;;;;;-2.90;100.00;146955.19;1669069;83;21087;-63
2021/12/31 05:35:10;;;;;;;51.20;18.92;;;;;;;-2.88;100.00;146960.33;1668343;85;20990;-63
2021/12/31 05:37:37;;;;;;;52.23;19.77;;;;;;;-2.86;100.00;146962.89;1659645;84;21886;-63
2021/12/31 05:40:05;;;;;;;46.90;18.37;;;;;;;-2.84;100.00;146968.02;1657379;85;21021;-63
2021/12/31 05:42:32;;;;;;;47.65;18.73;;;;;;;-2.86;100.00;146964.19;1663821;84;21524;-64
2021/12/31 05:44:59;;;;;;;58.10;20.37;;;;;;;-2.92;100.00;146950.06;1655043;85;21004;-63
2021/12/31 05:47:25;;;;;;;53.40;20.83;;;;;;;-2.97;100.00;146937.23;1663148;84;21113;-63
2021/12/31 05:49:52;;;;;;;51.00;20.10;;;;;;;-2.99;100.00;146932.06;1666916;84;21504;-64
2021/12/31 05:52:19;;;;;;;52.83;19.73;;;;;;;-2.98;100.00;146934.67;1657774;84;21135;-63
2021/12/31 05:54:45;;;;;;;56.47;20.73;;;;;;;-2.95;100.00;146941.06;1662094;85;21072;-63
2021/12/31 05:57:12;;;;;;;58.10;20.85;;;;;;;-2.94;100.00;146944.94;1661997;84;21335;-63
2021/12/31 05:59:38;;;;;;;51.77;21.02;;;;;;;-2.91;100.00;146952.63;1662068;85;21526;-64
2021/12/31 06:02:05;;;;;;;52.70;20.02;;;;;;;-2.87;100.00;146961.63;1667759;84;21209;-63
2021/12/31 06:04:32;;;;;;;46.70;19.93;;;;;;;-2.81;100.00;146975.72;1660567;83;21119;-63
2021/12/31 06:06:59;;;;;;;45.13;19.63;;;;;;;-2.78;100.00;146983.41;1653359;84;21383;-63
2021/12/31 06:09:29;;;;;;;47.37;19.50;;;;;;;-2.79;100.00;146982.16;1646380;86;21000;-65
2021/12/31 06:11:58;;;;;;;48.50;19.10;;;;;;;-2.79;100.00;146980.84;1650803;86;21488;-64
2021/12/31 06:14:25;;;;;;;45.17;18.37;;;;;;;-2.82;100.00;146974.47;1648719;86;21847;-63
2021/12/31 06:16:52;;;;;;;52.30;20.27;;;;;;;-2.83;100.00;146971.91;1649372;86;21083;-64
2021/12/31 06:19:19;;;;;;;55.05;20.77;;;;;;;-2.81;100.00;146975.72;1644755;86;21068;-64
2021/12/31 06:21:46;;;;;;;48.10;19.50;;;;;;;-2.77;100.00;146987.28;1648453;86;21142;-64
2021/12/31 06:24:12;;;;;;;43.97;18.97;;;;;;;-2.74;100.00;146993.72;1648831;86;21523;-64
2021/12/31 06:26:39;;;;;;;47.40;19.42;;;;;;;-2.75;100.00;146991.16;1645149;86;21833;-63
2021/12/31 06:29:05;;;;;;;45.55;18.40;;;;;;;-2.72;100.00;146998.86;1647435;85;20996;-63
2021/12/31 06:31:32;;;;;;;41.60;17.32;;;;;;;-2.70;100.00;147003.98;1644189;86;21477;-63
2021/12/31 06:33:59;;;;;;;47.93;19.12;;;;;;;-2.68;100.00;147009.12;1647107;85;21028;-63
2021/12/31 06:36:25;;;;;;;42.13;17.62;;;;;;;-2.61;100.00;147027.09;1645231;85;21513;-64
2021/12/31 06:38:52;;;;;;;45.78;18.12;;;;;;;-2.54;100.00;147042.47;1644022;86;21121;-63
2021/12/31 06:41:20;;;;;;;41.53;17.20;;;;;;;-2.52;100.00;147047.66;1650507;86;21068;-63
2021/12/31 06:43:47;;;;;;;44.40;17.70;;;;;;;-2.47;100.00;147060.50;1646115;86;21095;-64
2021/12/31 06:46:13;;;;;;;43.10;17.90;;;;;;;-2.40;100.00;147078.45;1647364;86;21103;-64
2021/12/31 06:48:40;;;;;;;40.35;16.95;;;;;;;-2.34;100.00;147093.86;1646132;86;21591;-57
2021/12/31 06:51:10;;;;;;;43.42;17.27;;;;;;;-2.25;100.00;147114.44;1647829;86;20998;-57
2021/12/31 06:53:39;;;;;;;50.67;19.37;;;;;;;-2.21;100.00;147126.02;1650326;86;21052;-56
2021/12/31 06:56:06;;;;;;;45.57;18.43;;;;;;;-2.16;100.00;147137.53;1645587;86;21117;-56
2021/12/31 06:58:33;;;;;;;44.83;18.57;;;;;;;-2.10;100.00;147152.98;1648947;86;21503;-58
2021/12/31 07:00:59;;;;;;;44.18;18.32;;;;;;;-2.04;100.00;147168.39;1642769;86;21094;-56
2021/12/31 07:03:26;;;;;;;50.45;18.70;;;;;;;-1.98;100.00;147181.23;1647233;85;21860;-58
2021/12/31 07:05:52;;;;;;;46.85;18.82;;;;;;;-1.95;100.00;147188.94;1649756;85;21113;-57
2021/12/31 07:08:20;;;;;;;51.40;20.35;;;;;;;-1.93;100.00;147194.06;1647490;85;21155;-57
2021/12/31 07:10:46;;;;;;;49.50;19.60;;;;;;;-1.91;100.00;147200.52;1643280;86;21084;-58
2021/12/31 07:13:13;;;;;;;54.10;20.37;;;;;;;-1.84;100.00;147217.22;1645233;86;21502;-58
2021/12/31 07:15:44;;;;;;;44.85;18.48;;;;;;;-1.80;100.00;147227.50;1638349;86;21134;-57
2021/12/31 07:18:11;;;;;;;44.63;18.77;;;;;;;-1.77;100.00;147235.20;1640691;86;20999;-58
2021/12/31 07:20:38;;;;;;;43.83;17.98;;;;;;;-1.71;100.00;147248.03;1641819;85;21084;-59
2021/12/31 07:23:10;;;;;;;44.55;18.12;;;;;;;-1.67;100.00;147258.31;1640583;86;21075;-57
2021/12/31 07:25:38;;;;;;;45.83;18.23;;;;;;;-1.63;100.00;147268.64;1642685;85;21092;-59
2021/12/31 07:28:06;;;;;;;43.08;17.87;;;;;;;-1.56;100.00;147286.61;1647507;86;21831;-64
2021/12/31 07:30:32;;;;;;;40.73;16.90;;;;;;;-1.50;100.00;147302.02;1640757;85;21059;-59
2021/12/31 07:32:59;;;;;;;42.43;17.05;;;;;;;-1.47;100.00;147308.47;1645961;85;21032;-65
2021/12/31 07:35:26;;;;;;;42.78;17.05;;;;;;;-1.42;100.00;147320.05;1642846;85;21102;-64
2021/12/31 07:37:55;;;;;;;42.62;16.62;;;;;;;-1.37;100.00;147332.89;1641579;86;21120;-58
2021/12/31 07:40:28;;;;;;;43.00;18.00;;;;;;;-1.34;100.00;147341.86;1641617;85;21674;-59
2021/12/31 07:42:53;;;;;;;43.63;16.95;;;;;;;-1.26;100.00;147361.16;1643822;85;21124;-66
2021/12/31 07:45:20;;;;;;;44.03;18.55;;;;;;;-1.21;100.00;147374.05;1643050;85;21194;-65
2021/12/31 07:47:47;;;;;;;42.23;17.48;;;;;;;-1.11;100.00;147397.17;1645574;85;21143;-59
2021/12/31 07:50:15;;;;;;;44.25;16.82;;;;;;;-1.05;100.00;147412.58;1643523;85;21490;-58
2021/12/31 07:52:42;;;;;;;31.87;14.80;;;;;;;-1.04;100.00;147415.16;1638018;85;21172;-59
2021/12/31 07:55:09;;;;;;;31.33;15.38;;;;;;;-1.02;100.00;147420.28;1646940;85;21556;-58
2021/12/31 07:57:37;;;;;;;34.38;15.08;;;;;;;-1.01;100.00;147422.86;1613826;86;21083;-58
2021/12/31 08:00:06;;;;;;;35.10;15.98;;;;;;;-0.97;100.00;147431.87;1643023;85;22414;-57
2021/12/31 08:02:34;;;;;;;37.58;16.07;;;;;;;-0.90;100.00;147451.17;1638401;85;21532;-59
2021/12/31 08:05:02;;;;;;;32.55;15.15;;;;;;;-0.82;100.00;147469.16;1642384;85;21761;-57
2021/12/31 08:07:29;;;;;;;34.63;15.25;;;;;;;-0.75;100.00;147487.20;1624155;85;21087;-58
2021/12/31 08:09:57;;;;;;;41.13;15.65;;;;;;;-0.68;100.00;147505.19;1654730;85;21079;-57
2021/12/31 08:12:23;;;;;;;32.20;14.80;;;;;;;-0.64;100.00;147515.47;1650730;85;21067;-57
2021/12/31 08:14:51;;;;;;;35.00;16.07;;;;;;;-0.56;100.00;147533.47;1643268;84;21504;-57
2021/12/31 08:17:17;;;;;;;40.33;16.20;;;;;;;-0.47;100.00;147556.66;1661846;85;22214;-58
2021/12/31 08:19:45;;;;;;;44.50;17.27;;;;;;;-0.41;100.00;147570.81;1656619;84;21526;-59
2021/12/31 08:22:12;;;;;;;40.30;17.80;;;;;;;-0.38;100.00;147578.53;1640391;85;21089;-58
2021/12/31 08:24:39;;;;;;;40.55;17.32;;;;;;;-0.33;100.00;147591.38;1660272;84;21091;-58
2021/12/31 08:27:05;;;;;;;41.00;16.97;;;;;;;-0.30;100.00;147599.09;1651476;85;21113;-58
2021/12/31 08:29:33;;;;;;;41.48;17.73;;;;;;;-0.29;100.00;147601.66;1666026;85;21592;-58
2021/12/31 08:32:02;;;;;;;40.63;16.67;;;;;;;-0.31;100.00;147597.84;1658598;85;21021;-57
2021/12/31 08:34:29;;;;;;;42.65;17.95;;;;;;;-0.30;100.00;147600.41;1674124;85;21039;-59
2021/12/31 08:36:55;;;;;;;45.30;18.45;;;;;;;-0.32;100.00;147595.27;1661322;85;21132;-57
2021/12/31 08:39:22;;;;;;;44.60;18.50;;;;;;;-0.33;100.00;147592.69;1659905;85;21039;-57
2021/12/31 08:41:49;;;;;;;49.88;18.52;;;;;;;-0.35;100.00;147587.50;1656879;85;21344;-57
2021/12/31 08:44:16;;;;;;;42.10;17.85;;;;;;;-0.37;100.00;147582.36;1648295;85;21489;-58
2021/12/31 08:46:43;;;;;;;43.58;17.70;;;;;;;-0.37;100.00;147582.36;1652054;85;21160;-57
2021/12/31 08:49:10;;;;;;;48.90;18.10;;;;;;;-0.34;100.00;147588.81;1642010;85;20986;-58
2021/12/31 08:51:37;;;;;;;47.30;18.92;;;;;;;-0.30;100.00;147599.09;1654195;85;21138;-57
2021/12/31 08:54:04;;;;;;;39.58;16.42;;;;;;;-0.28;100.00;147602.97;1668594;85;21120;-58
2021/12/31 08:56:31;;;;;;;44.80;16.23;;;;;;;-0.23;100.00;147615.83;1669652;85;21081;-57
2021/12/31 08:58:57;;;;;;;40.88;17.40;;;;;;;-0.17;100.00;147632.56;1675396;85;21071;-58
2021/12/31 09:01:24;;;;;;;34.15;15.63;;;;;;;-0.12;100.00;147644.13;1662578;84;21146;-58
2021/12/31 09:03:52;;;;;;;42.90;17.50;;;;;;;-0.07;100.00;147655.72;1677098;85;21177;-58
2021/12/31 09:06:19;;;;;;;40.08;16.25;;;;;;;-0.04;100.00;147663.42;1659944;84;22347;-57
2021/12/31 09:08:47;;;;;;;39.27;16.20;;;;;;;0.00;100.00;147673.75;1649262;85;21115;-57
2021/12/31 09:11:14;;;;;;;39.38;15.48;;;;;;;0.04;100.00;147684.05;1660248;85;21017;-57
2021/12/31 09:13:42;;;;;;;39.63;14.58;;;;;;;0.09;100.00;147695.59;1655475;84;21590;-57
2021/12/31 09:16:10;;;;;;;42.83;16.15;;;;;;;0.11;100.00;147700.75;1657956;85;21016;-57
2021/12/31 09:18:38;;;;;;;38.60;14.95;;;;;;;0.13;100.00;147705.94;1654064;85;21469;-58
2021/12/31 09:21:05;;;;;;;38.98;15.08;;;;;;;0.18;100.00;147718.80;1655890;85;21008;-57
2021/12/31 09:23:33;;;;;;;42.03;15.80;;;;;;;0.18;100.00;147718.80;1679424;84;21035;-58
2021/12/31 09:26:01;;;;;;;41.63;15.90;;;;;;;0.20;100.00;147723.94;1668531;85;20997;-64
2021/12/31 09:28:29;;;;;;;45.78;16.15;;;;;;;0.24;100.00;147734.22;1675495;85;21583;-64
2021/12/31 09:31:00;;;;;;;44.20;16.85;;;;;;;0.31;100.00;147749.66;1661192;85;22938;-58
2021/12/31 09:33:24;;;;;;;45.70;17.37;;;;;;;0.35;100.00;147760.00;1653966;85;21600;-58
2021/12/31 09:35:52;;;;;;;42.88;17.07;;;;;;;0.39;100.00;147771.55;1664364;85;21087;-63
2021/12/31 09:38:20;;;;;;;43.78;15.43;;;;;;;0.42;100.00;147778.00;1669392;84;21055;-64
2021/12/31 09:40:50;;;;;;;44.42;16.12;;;;;;;0.52;100.00;147803.73;1678176;84;21095;-65
2021/12/31 09:43:17;;;;;;;45.75;17.48;;;;;;;0.60;100.00;147823.05;1671306;85;21972;-59
2021/12/31 09:45:47;;;;;;;48.73;16.82;;;;;;;0.72;100.00;147852.67;1658924;85;22032;-57
2021/12/31 09:48:16;;;;;;;52.30;17.60;;;;;;;0.82;100.00;147878.45;1672465;84;21063;-57
2021/12/31 09:50:45;;;;;;;48.85;16.48;;;;;;;0.89;100.00;147895.20;1657057;85;21340;-63
2021/12/31 09:53:15;;;;;;;50.50;17.50;;;;;;;0.98;100.00;147917.06;1669022;84;21037;-63
2021/12/31 09:55:53;;;;;;;48.05;17.48;;;;;;;1.05;100.00;147935.13;1651580;85;21139;-64
2021/12/31 09:58:25;;;;;;;59.55;18.48;;;;;;;1.07;100.00;147938.95;1651636;85;21068;-63
2021/12/31 10:01:00;;;;;;;45.15;16.23;;;;;;;1.08;100.00;147942.84;1679827;85;21099;-63
2021/12/31 10:03:28;;;;;;;;;;;;;;;1.09;100.00;147944.11;1681430;83;21068;-64
2021/12/31 10:06:01;;;;;;;56.90;18.48;;;;;;;1.10;100.00;147947.98;1676033;85;20219;-64
2021/12/31 10:08:30;;;;;;;49.83;18.65;;;;;;;1.15;100.00;147959.59;1693160;83;21144;-64
2021/12/31 10:11:19;;;;;;;53.33;18.92;;;;;;;1.18;100.00;147966.02;1685728;84;21603;-66
2021/12/31 10:13:55;;;;;;;53.75;18.27;;;;;;;1.21;100.00;147973.73;1682835;84;21062;-64
2021/12/31 10:16:30;;;;;;;53.05;19.73;;;;;;;1.26;100.00;147986.66;1692740;82;21091;-64
2021/12/31 10:19:14;;;;;;;53.42;20.25;;;;;;;1.31;100.00;147999.53;1698533;84;21073;-63
2021/12/31 10:21:51;;;;;;;50.95;19.65;;;;;;;1.32;100.00;148002.09;1698434;83;21146;-63
2021/12/31 10:24:38;;;;;;;56.40;21.93;;;;;;;1.37;100.00;148014.97;1683877;84;21094;-64
2021/12/31 10:27:19;;;;;;;53.08;20.17;;;;;;;1.40;100.00;148022.69;1699187;84;21527;-65
2021/12/31 10:30:05;;;;;;;51.10;20.55;;;;;;;1.43;100.00;148030.42;1673095;83;21103;-63
2021/12/31 10:32:35;;;;;;;55.52;20.90;;;;;;;1.47;100.00;148038.19;1685545;84;21291;-63
2021/12/31 10:35:21;;;;;;;55.67;21.55;;;;;;;1.52;100.00;148051.06;1698424;82;21692;-63
2021/12/31 10:37:57;;;;;;;53.55;20.35;;;;;;;1.60;100.00;148070.41;1692656;84;21519;-64
2021/12/31 10:40:40;;;;;;;51.68;20.80;;;;;;;1.64;100.00;148081.97;1683339;84;21084;-64
2021/12/31 10:43:21;;;;;;;53.02;20.60;;;;;;;1.68;100.00;148091.00;1682309;84;21019;-63
2021/12/31 10:46:05;;;;;;;49.18;19.35;;;;;;;1.65;100.00;148084.55;1698099;84;20975;-64
2021/12/31 10:48:48;;;;;;;53.30;20.65;;;;;;;1.62;100.00;148076.81;1698259;84;20972;-64
2021/12/31 10:51:17;;;;;;;54.95;21.23;;;;;;;1.61;100.00;148074.23;1664430;84;21020;-65
2021/12/31 10:53:50;;;;;;;54.55;20.82;;;;;;;1.63;100.00;148078.13;1671739;84;21032;-56
2021/12/31 10:56:14;;;;;;;57.48;21.90;;;;;;;1.62;100.00;148076.81;1685812;84;21078;-58
2021/12/31 10:58:44;;;;;;;53.42;21.37;;;;;;;1.67;100.00;148089.75;1698329;83;21067;-57
2021/12/31 11:01:15;;;;;;;52.90;20.35;;;;;;;1.63;100.00;148079.39;1677521;84;20984;-58
2021/12/31 11:03:42;;;;;;;60.70;23.42;;;;;;;1.56;100.00;148062.69;1698506;83;21503;-57
2021/12/31 11:06:13;;;;;;;58.30;23.25;;;;;;;1.48;100.00;148040.77;1697801;82;21773;-58
2021/12/31 11:08:45;;;;;;;53.90;22.17;;;;;;;1.44;100.00;148031.73;1680847;84;21449;-57
2021/12/31 11:11:14;;;;;;;57.65;22.42;;;;;;;1.48;100.00;148040.77;1682173;84;21095;-58
2021/12/31 11:13:41;;;;;;;55.20;21.70;;;;;;;1.53;100.00;148053.64;1670005;83;21116;-57